AirNav   Everest Fuels
 
 1364 users online  

KVLL Oakland/Troy Airport
Troy, Michigan, USA

GOING TO TROY?


FAA INFORMATION EFFECTIVE 21 MAY 2020

Location

FAA Identifier: VLL
Lat/Long: 42-32-34.6000N 083-10-40.4000W
42-32.576667N 083-10.673333W
42.5429444,-83.1778889
(estimated)
Elevation: 727.2 ft. / 221.7 m (surveyed)
Variation: 06W (1995)
From city: 2 miles E of TROY, MI
Time zone: UTC -4 (UTC -5 during Standard Time)
Zip code: 48084

Airport Operations

Airport use: Open to the public
Control tower: no
ARTCC: CLEVELAND CENTER
FSS: LANSING FLIGHT SERVICE STATION
NOTAMs facility: VLL (NOTAM-D service available)
Attendance: 0800-1800
Pattern altitude: 1727.2 ft. MSL
Wind indicator: lighted
Segmented circle: no
Lights: ACTVT MIRL RY 09/27 & PAPI RYS 09 & 27 - CTAF.
Beacon: white-green (lighted land airport)
Operates sunset to sunrise.
Landing fee: yes

Airport Communications

CTAF/UNICOM: 123.05
WX AWOS-3: 119.475 (248-288-4649)
DETROIT APPROACH: 134.3
DETROIT DEPARTURE: 134.3
WX ASOS at DET (11 nm SE): PHONE 313-371-9696
WX ASOS at PTK (13 nm NW): 125.025 (248-886-8551)

Nearby radio navigation aids

VOR radial/distance  VOR name  Freq  Var
SVMr069/20.1SALEM VORTAC114.3003W
DXOr029/21.5DETROIT VOR/DME113.4006W
CRLr026/32.2CARLETON VOR/DME115.7003W
FNTr141/35.7FLINT VORTAC116.9006W

 
NDB name  Hdg/Dist  Freq  Var  ID
GROSSE ILE005/26.541907WRYS .-. -.-- ...

Airport Services

Fuel available: 100LL JET-A
Parking: tiedowns
Airframe service: NONE
Powerplant service: NONE

Runway Information

Runway 9/27

Dimensions: 3549 x 60 ft. / 1082 x 18 m
Surface: asphalt, in fair condition
Runway edge lights: medium intensity
RUNWAY 9  RUNWAY 27
Latitude: 42-32.575973N42-32.578848N
Longitude: 083-11.068925W083-10.278788W
Elevation: 727.0 ft.701.0 ft.
Traffic pattern: leftleft
Runway heading: 096 magnetic, 090 true276 magnetic, 270 true
Markings: nonprecision, in good conditionnonprecision, in good condition
Visual slope indicator: 2-light PAPI on right (3.75 degrees glide path)2-light PAPI on left (3.75 degrees glide path)
Runway end identifier lights: nono
Touchdown point: yes, no lightsyes, no lights
Obstructions: 19 ft. tree, 207 ft. from runway, 137 ft. right of centerline30 ft. tree, 200 ft. from runway, 125 ft. left of centerline

Airport Ownership and Management from official FAA records

Ownership: Publicly-owned
Owner: OAKLAND COUNTY
6500 HIGHLAND ROAD
WATERFORD, MI 48327
Phone (248) 288-6100
ARPT PHONE 248-666-3900
Manager: CHERYL BUSH
6500 HIGHLAND RD
WATERFORD, MI 48327
Phone 248-666-3900

Airport Operational Statistics

Aircraft based on the field: 113
Single engine airplanes: 102
Multi engine airplanes: 5
Helicopters: 5
Ultralights: 1
    
Aircraft operations: avg 82/day *
50% transient general aviation
50% local general aviation
* for 12-month period ending 31 December 2019

Additional Remarks

DEER AND BIRDS ON & INVOF ARPT.
RY 09 +3 FT BERM 316 FT FM THLD.
NO TGL OR PRACTICE TFC PATTERNS.
FOR CD CTC DETROIT APCH AT 800-499-8181.

Instrument Procedures

NOTE: All procedures below are presented as PDF files. If you need a reader for these files, you should download the free Adobe Reader.

NOT FOR NAVIGATION. Please procure official charts for flight.
FAA instrument procedures published for use from 21 May 2020 at 0901Z to 18 June 2020 at 0900Z.

 
STARs - Standard Terminal Arrivals
FOREY TWO (RNAV)   download (180KB)
OKLND ONE (RNAV)   download (156KB)
PETTE TWO (RNAV)   download (221KB)
RRALF THREE (RNAV) **NEW**   download (180KB)
 
IAPs - Instrument Approach Procedures
RNAV (GPS) RWY 09   download (189KB)
 
Departure Procedures
BARII TWO (RNAV)   download (166KB)
CCOBB TWO (RNAV) **CHANGED**   download (210KB)
CLVIN TWO (RNAV)   download (180KB)
HHOWE THREE (RNAV)   download (198KB)
KAYLN TWO (RNAV)   download (175KB)
LIDDS TWO (RNAV)   download (189KB)
MIGGY TWO (RNAV)   download (209KB)
PAVYL TWO (RNAV)   download (185KB)
SNDRS TWO (RNAV)   download (222KB)
TRMML THREE (RNAV)   download (171KB)
ZETTR THREE (RNAV)   download (213KB)
NOTE: Special Take-Off Minimums/Departure Procedures apply   download (125KB)

Other nearby airports with instrument procedures:

KDET - Coleman A Young Municipal Airport (11 nm SE)
KPTK - Oakland County International Airport (13 nm NW)
KMTC - Selfridge Air National Guard Base (16 nm E)
1D2 - Canton-Plymouth-Mettetal Airport (17 nm SW)
57D - Ray Community Airport (17 nm NE)
D98 - Romeo State Airport (18 nm NE)
Y47 - Oakland Southwest Airport (20 nm W)
 
Loc | Ops | Rwys | IFR | FBO | Links
Com | Nav | Svcs | Stats | Notes
Area around KVLL (Oakland/Troy Airport)
 
Road maps at: MapQuest Bing Google
 
Aerial photo
WARNING: Photo may not be current or correct
Aerial photo of KVLL (Oakland/Troy Airport)
Photo by Jeff Schuster
Photo taken 29-Jun-2014
looking west.

Do you have a better or more recent aerial photo of Oakland/Troy Airport that you would like to share? If so, please send us your photo.

 
Sectional chart

 
Airport distance calculator
Flying to Oakland/Troy Airport? Find the distance to fly.

From to KVLL

Sunrise and sunset
Times for 05-Jun-2020
 Local
(UTC-4)
 Zulu
(UTC)
Morning civil twilight05:2209:22
Sunrise05:5709:57
Sunset21:0601:06
Evening civil twilight21:4001:40

Current date and time
Zulu (UTC)  05-Jun-2020 17:30:19
Local (UTC-4)  05-Jun-2020 13:30:19
 
METAR
KVLL 051715Z AUTO 26005KT 10SM CLR 29/10 A2986 RMK AO2 T02910103
KDET 
11nm SE 
051653Z 26009KT 10SM CLR 29/11 A2985 RMK AO2 SLP102 T02940111
KPTK 
13nm NW 
051653Z VRB03KT 10SM FEW095 BKN200 27/12 A2985 RMK AO2 SLP101 T02720117 $
KMTC 
17nm E 
051656Z 14007KT 10SM FEW180 BKN230 29/17 A2983 RMK AO2A SLP102 T02860168 $
CYQG 
19nm SE 
051700Z AUTO 27005G16KT 230V290 9SM CLR 29/13 A2985 RMK SLP104 DENSITY ALT 2400FT
KDTW 
20nm S 
051653Z 26005KT 10SM BKN220 29/14 A2986 RMK AO2 SLP105 T02890144
TAF
KDET 
11nm SE 
051120Z 0512/0612 24005KT P6SM SCT200 FM051800 23010KT P6SM BKN050 PROB30 0522/0602 6SM -TSRA OVC050CB FM060300 30006KT P6SM BKN030 FM060700 33008KT P6SM SCT035
KPTK 
13nm NW 
051120Z 0512/0612 26004KT P6SM SCT250 FM051800 27010KT P6SM BKN050 PROB30 0522/0602 6SM -TSRA OVC050CB FM060200 31006KT P6SM BKN030 FM060600 33008KT P6SM SCT035
KMTC 
17nm E 
050900Z 0509/0615 29009KT 9999 FEW080 QNH2982INS BECMG 0517/0518 26012G18KT 9999 FEW065 QNH2979INS BECMG 0521/0522 29009KT 9999 SCT050 QNH2980INS BECMG 0600/0601 31012G18KT 9000 -SHRA BKN035 QNH2981INS TEMPO 0603/0606 8000 -TSRA OVC020CB BECMG 0605/0606 33009KT 9999 NSW FEW030 FEW050 QNH2983INS TX31/0521Z TN17/0609Z LAST NO AMDS AFT 0509 NEXT 0511
CYQG 
19nm SE 
051140Z 0512/0612 VRB03KT P6SM FEW200 FM051500 28007KT P6SM FEW070 FM052100 26012KT P6SM BKN070 PROB30 0523/0602 VRB15G25KT 2SM +TSRA BR BKN020 OVC050CB FM060200 30010G20KT P6SM BKN050 FM060500 34010KT P6SM FEW030 BECMG 0606/0608 30005KT RMK FCST BASED ON AUTO OBS. NXT FCST BY 051800Z
KDTW 
20nm S 
051502Z 0515/0618 24004KT P6SM FEW050 SCT200 FM051800 23010KT P6SM BKN050 TEMPO 0522/0602 6SM -TSRA OVC050CB FM060300 30006KT P6SM BKN030 FM060700 33008KT P6SM SCT035
NOTAMs
Click for the latest NOTAMs
NOTAMs are issued by the DoD/FAA and will open in a separate window not controlled by AirNav.

 

 
 

FBO, Fuel Providers, and Aircraft Ground Support

  
 Business Name 
 
 Contact 
 
 Services / Description 
 
Fuel Prices
 
Comments
  
JDS Pump-N-Go 248-288-6100
[email]
Aviation fuel, Aircraft parking (ramp or tiedown), Hangar leasing / sales

More info about JDS Pump-N-Go
Avfuel
100LL Jet A
SS $5.40 $4.00 
 Updated 04-Jun-2020
 
   write
24HRFUEL.com 248-221-2433
no information available

If you are affiliated with 24HRFUEL.com and would like to show here your services, contact info, web link, logo, and more, click here
100LL Jet A
SS $5.40 $4.40 
 Updated 06-Apr-2020
 
   2 read write
SS=Self service
Update Fuel Prices
 

Would you like to see your business listed on this page?

 If your business provides an interesting product or service to pilots, flight crews, aircraft, or users of the Oakland/Troy Airport, you should consider listing it here.  To start the listing process, click on the button below
 
Add a business
 

Other Pages about Oakland/Troy Airport

Oakland/Troy Airport Website
Page from the Michigan Airport Directory (PDF)
 
Update a link
 
Copyright © AirNav, LLC. All rights reserved. Privacy Policy  Contact